createdAt,value
2023-04-03T00:01:05.456Z,103274.94
2023-04-03T00:03:32.069Z,103274.66
2023-04-03T00:05:58.744Z,103278.47
2023-04-03T00:08:25.381Z,103271.97
2023-04-03T00:10:52.031Z,103280.19
2023-04-03T00:13:18.696Z,103284.22
2023-04-03T00:15:46.073Z,103280.03
2023-04-03T00:18:12.806Z,103278.66
2023-04-03T00:20:39.561Z,103280.19
2023-04-03T00:23:06.651Z,103283.88
2023-04-03T00:25:33.954Z,103287.09
2023-04-03T00:28:00.522Z,103288.31
2023-04-03T00:30:27.380Z,103285.53
2023-04-03T00:32:54.038Z,103281.66
2023-04-03T00:35:22.090Z,103285.72
2023-04-03T00:37:48.880Z,103292.81
2023-04-03T00:40:16.935Z,103297.06
2023-04-03T00:42:44.370Z,103293.38
2023-04-03T00:45:16.663Z,103294.06
2023-04-03T00:47:43.283Z,103290.25
2023-04-03T00:50:10.037Z,103295.09
2023-04-03T00:52:37.872Z,103295.38
2023-04-03T00:55:07.519Z,103297.47
2023-04-03T00:57:34.697Z,103298.59
2023-04-03T01:00:06.999Z,103295.72
2023-04-03T01:02:33.656Z,103298.75
2023-04-03T01:05:00.361Z,103296.16
2023-04-03T01:07:34.999Z,103297.97
2023-04-03T01:10:03.907Z,103297.59
2023-04-03T01:12:36.884Z,103308.06
2023-04-03T01:15:11.371Z,103292.63
2023-04-03T01:17:44.328Z,103299.41
2023-04-03T01:20:26.190Z,103294.00
2023-04-03T01:23:11.099Z,103290.66
2023-04-03T01:25:41.858Z,103287.69
2023-04-03T01:28:11.634Z,103290.44
2023-04-03T01:31:04.211Z,103295.09
2023-04-03T01:33:31.192Z,103298.75
2023-04-03T01:35:57.868Z,103290.44
2023-04-03T01:38:24.749Z,103290.88
2023-04-03T01:40:51.654Z,103294.00
2023-04-03T01:43:18.209Z,103298.22
2023-04-03T01:45:44.969Z,103299.34
2023-04-03T01:48:11.617Z,103306.22
2023-04-03T01:50:38.540Z,103302.88
2023-04-03T01:53:05.390Z,103303.56
2023-04-03T01:55:31.948Z,103303.56
2023-04-03T01:57:58.495Z,103306.03
2023-04-03T02:00:25.062Z,103313.66
2023-04-03T02:02:51.673Z,103319.38
2023-04-03T02:05:18.295Z,103318.81
2023-04-03T02:07:44.950Z,103317.00
2023-04-03T02:10:11.646Z,103322.34
2023-04-03T02:12:38.230Z,103320.63
2023-04-03T02:15:05.655Z,103332.75
2023-04-03T02:17:32.292Z,103333.59
2023-04-03T02:19:58.871Z,103338.00
2023-04-03T02:22:25.557Z,103331.75
2023-04-03T02:24:52.841Z,103344.38
2023-04-03T02:27:19.456Z,103335.97
2023-04-03T02:29:45.999Z,103330.56
2023-04-03T02:32:12.561Z,103341.63
2023-04-03T02:34:39.126Z,103346.88
2023-04-03T02:37:06.229Z,103337.50
2023-04-03T02:39:32.822Z,103339.69
2023-04-03T02:41:59.366Z,103345.34
2023-04-03T02:44:26.019Z,103346.78
2023-04-03T02:46:52.564Z,103342.84
2023-04-03T02:49:19.453Z,103343.78
2023-04-03T02:51:46.740Z,103346.78
2023-04-03T02:54:13.345Z,103344.97
2023-04-03T02:56:39.928Z,103337.63
2023-04-03T02:59:07.154Z,103337.63
2023-04-03T03:01:33.799Z,103351.66
2023-04-03T03:04:01.027Z,103346.50
2023-04-03T03:06:27.722Z,103347.34
2023-04-03T03:08:54.490Z,103347.06
2023-04-03T03:11:22.011Z,103364.03
2023-04-03T03:13:48.628Z,103363.97
2023-04-03T03:16:15.484Z,103363.66
2023-04-03T03:18:42.118Z,103361.03
2023-04-03T03:21:10.828Z,103367.47
2023-04-03T03:23:37.545Z,103369.31
2023-04-03T03:26:07.617Z,103358.63
2023-04-03T03:28:34.540Z,103358.91
2023-04-03T03:31:01.555Z,103358.50
2023-04-03T03:33:28.188Z,103362.03
2023-04-03T03:35:55.296Z,103351.06
2023-04-03T03:38:22.076Z,103358.00
2023-04-03T03:40:49.706Z,103358.31
2023-04-03T03:43:16.722Z,103358.47
2023-04-03T03:45:43.336Z,103366.56
2023-04-03T03:48:09.877Z,103367.19
2023-04-03T03:50:36.454Z,103378.59
2023-04-03T03:53:03.042Z,103374.94
2023-04-03T03:55:29.614Z,103373.94
2023-04-03T03:57:56.156Z,103386.53
2023-04-03T04:00:22.720Z,103390.28
2023-04-03T04:02:49.304Z,103387.06
2023-04-03T04:05:16.009Z,103378.88
2023-04-03T04:07:42.643Z,103379.28
2023-04-03T04:10:09.707Z,103375.56
2023-04-03T04:12:36.695Z,103372.13
2023-04-03T04:15:04.013Z,103370.09
2023-04-03T04:17:30.652Z,103367.56
2023-04-03T04:19:57.292Z,103373.75
2023-04-03T04:22:23.850Z,103373.59
2023-04-03T04:24:50.413Z,103382.56
2023-04-03T04:27:17.029Z,103375.41
2023-04-03T04:29:43.572Z,103382.19
2023-04-03T04:32:10.144Z,103385.81
2023-04-03T04:34:36.782Z,103384.44
2023-04-03T04:37:03.592Z,103390.22
2023-04-03T04:39:30.410Z,103392.69
2023-04-03T04:41:57.082Z,103396.06
2023-04-03T04:44:23.619Z,103393.75
2023-04-03T04:46:50.188Z,103390.53
2023-04-03T04:49:16.761Z,103400.31
2023-04-03T04:51:51.545Z,103404.06
2023-04-03T04:54:19.096Z,103408.56
2023-04-03T04:56:45.880Z,103404.84
2023-04-03T04:59:12.509Z,103411.44
2023-04-03T05:01:39.081Z,103402.25
2023-04-03T05:04:05.759Z,103414.72
2023-04-03T05:06:33.101Z,103417.38
2023-04-03T05:09:00.229Z,103419.03
2023-04-03T05:11:27.181Z,103410.78
2023-04-03T05:13:53.816Z,103406.50
2023-04-03T05:16:20.451Z,103411.88
2023-04-03T05:18:47.149Z,103411.78
2023-04-03T05:21:13.708Z,103412.41
2023-04-03T05:23:40.300Z,103408.16
2023-04-03T05:26:06.907Z,103411.69
2023-04-03T05:28:33.585Z,103409.75
2023-04-03T05:31:00.428Z,103410.22
2023-04-03T05:33:27.330Z,103412.88
2023-04-03T05:35:55.446Z,103416.53
2023-04-03T05:38:22.193Z,103422.25
2023-04-03T05:40:48.971Z,103425.50
2023-04-03T05:43:15.933Z,103427.00
2023-04-03T05:45:45.550Z,103436.69
2023-04-03T05:48:13.954Z,103432.56
2023-04-03T05:50:42.637Z,103437.75
2023-04-03T05:53:17.607Z,103445.72
2023-04-03T05:55:44.296Z,103440.97
2023-04-03T05:58:11.700Z,103435.09
2023-04-03T06:00:38.649Z,103451.56
2023-04-03T06:03:05.423Z,103453.19
2023-04-03T06:05:32.170Z,103455.69
2023-04-03T06:07:58.836Z,103458.34
2023-04-03T06:10:25.380Z,103449.44
2023-04-03T06:12:52.342Z,103457.59
2023-04-03T06:15:19.018Z,103461.72
2023-04-03T06:17:46.099Z,103457.38
2023-04-03T06:20:13.250Z,103461.03
2023-04-03T06:22:39.941Z,103462.22
2023-04-03T06:25:07.367Z,103460.41
2023-04-03T06:27:34.109Z,103457.75
2023-04-03T06:30:01.041Z,103458.22
2023-04-03T06:32:27.786Z,103461.38
2023-04-03T06:34:54.626Z,103462.97
2023-04-03T06:37:23.573Z,103460.41
2023-04-03T06:39:50.406Z,103464.75
2023-04-03T06:42:17.156Z,103470.22
2023-04-03T06:44:43.714Z,103470.28
2023-04-03T06:47:14.671Z,103473.56
2023-04-03T06:49:41.297Z,103479.56
2023-04-03T06:52:08.366Z,103481.28
2023-04-03T06:54:34.926Z,103476.53
2023-04-03T06:57:01.707Z,103479.22
2023-04-03T06:59:28.473Z,103484.47
2023-04-03T07:01:55.105Z,103491.19
2023-04-03T07:04:22.042Z,103499.06
2023-04-03T07:06:49.058Z,103496.06
2023-04-03T07:09:16.077Z,103495.31
2023-04-03T07:11:42.680Z,103502.94
2023-04-03T07:14:09.314Z,103508.66
2023-04-03T07:16:36.262Z,103512.69
2023-04-03T07:19:03.896Z,103512.50
2023-04-03T07:21:30.686Z,103520.09
2023-04-03T07:23:57.286Z,103520.34
2023-04-03T07:26:23.855Z,103525.69
2023-04-03T07:28:51.020Z,103530.22
2023-04-03T07:31:18.481Z,103524.91
2023-04-03T07:33:46.114Z,103542.34
2023-04-03T07:36:16.116Z,103533.84
2023-04-03T07:38:42.721Z,103532.53
2023-04-03T07:41:16.169Z,103531.84
2023-04-03T07:43:43.333Z,103540.03
2023-04-03T07:46:10.361Z,103538.34
2023-04-03T07:48:37.047Z,103537.75
2023-04-03T07:51:05.465Z,103543.78
2023-04-03T07:53:32.763Z,103552.19
2023-04-03T07:56:00.350Z,103545.28
2023-04-03T07:58:27.810Z,103540.94
2023-04-03T08:00:54.486Z,103547.25
2023-04-03T08:03:21.371Z,103548.34
2023-04-03T08:05:49.688Z,103549.28
2023-04-03T08:08:22.970Z,103540.31
2023-04-03T08:10:51.381Z,103537.31
2023-04-03T08:13:18.972Z,103548.00
2023-04-03T08:15:45.627Z,103541.97
2023-04-03T08:18:12.324Z,103546.38
2023-04-03T08:20:39.702Z,103539.22
2023-04-03T08:23:06.497Z,103537.53
2023-04-03T08:25:33.165Z,103533.34
2023-04-03T08:27:59.742Z,103529.91
2023-04-03T08:30:26.362Z,103530.00
2023-04-03T08:32:52.986Z,103527.41
2023-04-03T08:35:20.945Z,103540.94
2023-04-03T08:37:47.793Z,103538.13
2023-04-03T08:40:17.260Z,103539.31
2023-04-03T08:43:05.210Z,103535.94
2023-04-03T08:45:48.160Z,103532.47
2023-04-03T08:48:22.678Z,103527.91
2023-04-03T08:50:55.763Z,103524.38
2023-04-03T08:53:27.764Z,103529.03
2023-04-03T08:55:54.523Z,103529.63
2023-04-03T08:58:23.532Z,103526.22
2023-04-03T09:00:57.569Z,103531.69
2023-04-03T09:03:24.445Z,103524.59
2023-04-03T09:06:01.756Z,103518.72
2023-04-03T09:08:30.490Z,103518.69
2023-04-03T09:11:06.631Z,103513.56
2023-04-03T09:13:51.453Z,103517.22
2023-04-03T09:16:27.341Z,103522.16
2023-04-03T09:19:07.079Z,103524.88
2023-04-03T09:21:38.703Z,103524.16
2023-04-03T09:24:08.555Z,103522.53
2023-04-03T09:26:40.410Z,103524.34
2023-04-03T09:29:08.560Z,103526.25
2023-04-03T09:31:42.222Z,103530.94
2023-04-03T09:34:18.214Z,103526.47
2023-04-03T09:36:47.753Z,103525.06
2023-04-03T09:39:20.156Z,103529.63
2023-04-03T09:41:57.784Z,103521.78
2023-04-03T09:44:36.377Z,103529.00
2023-04-03T09:47:27.738Z,103522.16
2023-04-03T09:50:20.235Z,103523.97
2023-04-03T09:52:52.684Z,103516.31
2023-04-03T09:55:22.228Z,103520.72
2023-04-03T09:57:51.604Z,103516.97
2023-04-03T10:00:33.358Z,103513.56
2023-04-03T10:03:00.991Z,103515.63
2023-04-03T10:05:34.223Z,103512.25
2023-04-03T10:08:16.321Z,103510.59
2023-04-03T10:10:48.084Z,103512.66
2023-04-03T10:13:22.122Z,103503.75
2023-04-03T10:15:55.436Z,103503.06
2023-04-03T10:18:28.648Z,103504.91
2023-04-03T10:20:58.998Z,103502.31
2023-04-03T10:23:43.680Z,103503.00
2023-04-03T10:26:14.672Z,103498.56
2023-04-03T10:29:01.925Z,103494.78
2023-04-03T10:31:44.376Z,103491.38
2023-04-03T10:34:23.204Z,103501.13
2023-04-03T10:37:15.253Z,103493.97
2023-04-03T10:39:44.698Z,103490.69
2023-04-03T10:42:29.192Z,103494.94
2023-04-03T10:45:23.726Z,103491.25
2023-04-03T10:47:59.246Z,103479.72
2023-04-03T10:50:55.294Z,103485.31
2023-04-03T10:53:33.996Z,103484.16
2023-04-03T10:56:18.354Z,103476.25
2023-04-03T10:58:46.729Z,103475.34
2023-04-03T11:01:23.066Z,103476.31
2023-04-03T11:03:53.807Z,103479.38
2023-04-03T11:06:24.617Z,103472.34
2023-04-03T11:09:00.698Z,103467.00
2023-04-03T11:11:30.874Z,103471.59
2023-04-03T11:14:02.546Z,103461.03
2023-04-03T11:16:33.716Z,103463.00
2023-04-03T11:19:15.759Z,103457.72
2023-04-03T11:21:45.378Z,103450.63
2023-04-03T11:24:33.173Z,103454.09
2023-04-03T11:27:01.289Z,103447.09
2023-04-03T11:29:35.978Z,103448.91
2023-04-03T11:32:17.924Z,103446.22
2023-04-03T11:34:48.206Z,103437.38
2023-04-03T11:37:39.413Z,103432.06
2023-04-03T11:40:30.954Z,103424.78
2023-04-03T11:43:00.172Z,103423.09
2023-04-03T11:45:28.975Z,103410.72
2023-04-03T11:48:23.915Z,103407.06
2023-04-03T11:50:52.324Z,103414.31
2023-04-03T11:53:36.912Z,103404.59
2023-04-03T11:56:05.093Z,103405.41
2023-04-03T11:58:38.047Z,103409.97
2023-04-03T12:01:09.703Z,103405.56
2023-04-03T12:03:43.481Z,103420.81
2023-04-03T12:06:11.458Z,103415.44
2023-04-03T12:08:40.655Z,103416.28
2023-04-03T12:11:10.388Z,103410.84
2023-04-03T12:13:39.901Z,103413.75
2023-04-03T12:16:27.910Z,103420.84
2023-04-03T12:18:54.527Z,103412.91
2023-04-03T12:21:23.507Z,103413.00
2023-04-03T12:24:02.517Z,103409.38
2023-04-03T12:26:52.709Z,103403.97
2023-04-03T12:29:24.670Z,103394.19
2023-04-03T12:32:06.329Z,103400.59
2023-04-03T12:35:09.784Z,103406.88
2023-04-03T12:38:02.986Z,103392.50
2023-04-03T12:40:47.264Z,103398.84
2023-04-03T12:43:51.493Z,103393.56
2023-04-03T12:46:22.485Z,103389.09
2023-04-03T12:48:56.043Z,103385.44
2023-04-03T12:51:35.883Z,103381.84
2023-04-03T12:54:15.014Z,103369.44
2023-04-03T12:56:41.579Z,103372.13
2023-04-03T12:59:27.795Z,103366.75
2023-04-03T13:01:59.389Z,103369.44
2023-04-03T13:04:27.516Z,103363.25
2023-04-03T13:06:54.123Z,103357.88
2023-04-03T13:09:29.531Z,103356.16
2023-04-03T13:12:00.547Z,103351.72
2023-04-03T13:14:29.625Z,103349.06
2023-04-03T13:17:01.160Z,103347.31
2023-04-03T13:19:30.012Z,103349.13
2023-04-03T13:22:22.927Z,103352.72
2023-04-03T13:24:52.221Z,103346.50
2023-04-03T13:27:18.844Z,103357.31
2023-04-03T13:29:51.869Z,103352.72
2023-04-03T13:32:24.512Z,103354.56
2023-04-03T13:34:51.538Z,103355.38
2023-04-03T13:37:33.302Z,103359.03
2023-04-03T13:40:07.663Z,103355.41
2023-04-03T13:42:37.670Z,103351.00
2023-04-03T13:45:11.967Z,103353.78
2023-04-03T13:47:40.689Z,103351.97
2023-04-03T13:50:13.461Z,103357.47
2023-04-03T13:52:43.429Z,103359.28
2023-04-03T13:55:25.819Z,103361.09
2023-04-03T13:58:24.028Z,103348.53
2023-04-03T14:00:56.320Z,103347.66
2023-04-03T14:03:43.124Z,103351.38
2023-04-03T14:06:14.195Z,103345.19
2023-04-03T14:08:43.538Z,103343.16
2023-04-03T14:11:17.681Z,103348.59
2023-04-03T14:13:45.274Z,103336.06
2023-04-03T14:16:32.425Z,103334.47
2023-04-03T14:18:59.237Z,103328.16
2023-04-03T14:21:25.910Z,103332.44
2023-04-03T14:23:52.521Z,103327.28
2023-04-03T14:26:21.818Z,103319.94
2023-04-03T14:28:50.678Z,103326.22
2023-04-03T14:31:17.480Z,103321.69
2023-04-03T14:33:44.851Z,103318.25
2023-04-03T14:36:17.089Z,103318.13
2023-04-03T14:38:45.296Z,103325.31
2023-04-03T14:41:16.989Z,103321.75
2023-04-03T14:43:45.123Z,103307.28
2023-04-03T14:46:21.201Z,103307.28
2023-04-03T14:48:47.805Z,103303.72
2023-04-03T14:51:15.722Z,103308.31
2023-04-03T14:53:44.637Z,103307.50
2023-04-03T14:56:25.013Z,103302.03
2023-04-03T14:58:56.521Z,103305.53
2023-04-03T15:01:23.199Z,103305.47
2023-04-03T15:03:49.918Z,103307.09
2023-04-03T15:06:16.927Z,103298.19
2023-04-03T15:08:44.483Z,103286.56
2023-04-03T15:11:11.871Z,103291.91
2023-04-03T15:13:39.292Z,103283.78
2023-04-03T15:16:26.095Z,103285.69
2023-04-03T15:18:52.715Z,103274.84
2023-04-03T15:21:19.274Z,103281.28
2023-04-03T15:23:45.908Z,103279.38
2023-04-03T15:26:12.628Z,103276.56
2023-04-03T15:28:41.239Z,103267.44
2023-04-03T15:31:07.959Z,103267.47
2023-04-03T15:33:35.614Z,103275.63
2023-04-03T15:36:07.292Z,103276.41
2023-04-03T15:38:39.184Z,103264.81
2023-04-03T15:41:06.416Z,103265.66
2023-04-03T15:43:34.737Z,103254.91
2023-04-03T15:46:01.778Z,103264.09
2023-04-03T15:48:29.154Z,103253.25
2023-04-03T15:50:57.193Z,103260.31
2023-04-03T15:53:24.520Z,103253.97
2023-04-03T15:55:51.215Z,103254.88
2023-04-03T15:58:17.833Z,103253.09
2023-04-03T16:00:44.468Z,103255.84
2023-04-03T16:03:13.500Z,103249.50
2023-04-03T16:05:40.687Z,103256.72
2023-04-03T16:08:08.676Z,103262.09
2023-04-03T16:10:36.806Z,103253.25
2023-04-03T16:13:04.334Z,103256.81
2023-04-03T16:15:31.736Z,103263.91
2023-04-03T16:17:59.537Z,103258.63
2023-04-03T16:20:26.265Z,103260.44
2023-04-03T16:22:53.031Z,103258.56
2023-04-03T16:25:19.615Z,103261.25
2023-04-03T16:27:46.222Z,103259.50
2023-04-03T16:30:12.827Z,103261.25
2023-04-03T16:32:40.058Z,103254.94
2023-04-03T16:35:07.196Z,103258.56
2023-04-03T16:37:33.870Z,103254.94
2023-04-03T16:40:00.438Z,103259.50
2023-04-03T16:42:27.095Z,103256.75
2023-04-03T16:44:53.693Z,103263.94
2023-04-03T16:47:20.824Z,103267.47
2023-04-03T16:49:48.079Z,103265.75
2023-04-03T16:52:15.494Z,103273.78
2023-04-03T16:54:42.433Z,103261.25
2023-04-03T16:57:09.008Z,103262.16
2023-04-03T16:59:35.834Z,103260.31
2023-04-03T17:02:02.400Z,103264.66
2023-04-03T17:04:28.999Z,103256.63
2023-04-03T17:06:55.928Z,103257.38
2023-04-03T17:09:23.737Z,103260.06
2023-04-03T17:11:50.444Z,103260.06
2023-04-03T17:14:17.055Z,103253.81
2023-04-03T17:16:43.839Z,103260.03
2023-04-03T17:19:10.475Z,103261.91
2023-04-03T17:21:37.045Z,103260.78
2023-04-03T17:24:09.326Z,103263.56
2023-04-03T17:26:37.511Z,103263.47
2023-04-03T17:29:05.633Z,103263.47
2023-04-03T17:31:32.693Z,103272.50
2023-04-03T17:34:01.862Z,103265.44
2023-04-03T17:36:32.182Z,103262.66
2023-04-03T17:38:58.812Z,103267.13
2023-04-03T17:41:26.225Z,103270.66
2023-04-03T17:43:56.322Z,103266.19
2023-04-03T17:46:24.352Z,103263.50
2023-04-03T17:48:51.528Z,103268.72
2023-04-03T17:51:23.045Z,103268.94
2023-04-03T17:53:50.030Z,103273.25
2023-04-03T17:56:29.445Z,103268.75
2023-04-03T17:58:58.213Z,103274.22
2023-04-03T18:01:30.913Z,103264.31
2023-04-03T18:03:59.866Z,103263.59
2023-04-03T18:06:37.036Z,103272.44
2023-04-03T18:09:13.620Z,103267.13
2023-04-03T18:11:40.342Z,103268.88
2023-04-03T18:14:07.823Z,103268.75
2023-04-03T18:16:34.785Z,103271.63
2023-04-03T18:21:30.923Z,103261.53
2023-04-03T18:23:57.469Z,103264.38
2023-04-03T18:26:26.992Z,103267.03
2023-04-03T18:28:59.138Z,103256.28
2023-04-03T18:31:26.539Z,103260.69
2023-04-03T18:33:54.901Z,103259.84
2023-04-03T18:36:21.711Z,103259.91
2023-04-03T18:38:48.267Z,103254.47
2023-04-03T18:41:14.845Z,103259.06
2023-04-03T18:43:41.387Z,103259.91
2023-04-03T18:46:08.034Z,103264.38
2023-04-03T18:48:35.404Z,103263.41
2023-04-03T18:51:02.350Z,103268.88
2023-04-03T18:53:29.150Z,103267.97
2023-04-03T18:55:55.781Z,103260.63
2023-04-03T18:58:22.564Z,103266.94
2023-04-03T19:00:49.156Z,103266.88
2023-04-03T19:03:15.950Z,103273.13
2023-04-03T19:05:42.827Z,103267.69
2023-04-03T19:08:09.592Z,103267.69
2023-04-03T19:10:36.191Z,103277.44
2023-04-03T19:13:02.767Z,103274.72
2023-04-03T19:15:29.427Z,103275.69
2023-04-03T19:17:56.077Z,103279.25
2023-04-03T19:20:22.718Z,103275.63
2023-04-03T19:22:49.451Z,103271.00
2023-04-03T19:25:16.090Z,103273.88
2023-04-03T19:27:42.858Z,103268.41
2023-04-03T19:30:11.447Z,103261.31
2023-04-03T19:32:38.081Z,103266.59
2023-04-03T19:35:05.219Z,103263.03
2023-04-03T19:37:31.818Z,103254.13
2023-04-03T19:39:58.479Z,103250.50
2023-04-03T19:42:28.236Z,103248.63
2023-04-03T19:44:54.897Z,103251.31
2023-04-03T19:47:22.320Z,103257.53
2023-04-03T19:49:49.226Z,103255.84
2023-04-03T19:52:15.952Z,103257.53
2023-04-03T19:54:42.570Z,103251.25
2023-04-03T19:57:09.333Z,103253.13
2023-04-03T19:59:35.914Z,103256.72
2023-04-03T20:02:02.610Z,103258.50
2023-04-03T20:04:29.290Z,103253.84
2023-04-03T20:06:57.006Z,103252.91
2023-04-03T20:09:23.584Z,103241.09
2023-04-03T20:11:51.441Z,103244.06
2023-04-03T20:14:19.231Z,103248.34
2023-04-03T20:16:47.314Z,103248.41
2023-04-03T20:19:14.091Z,103242.91
2023-04-03T20:21:41.369Z,103249.13
2023-04-03T20:24:10.777Z,103252.03
2023-04-03T20:26:42.160Z,103246.59
2023-04-03T20:29:08.724Z,103235.81
2023-04-03T20:31:35.643Z,103229.38
2023-04-03T20:34:03.093Z,103232.09
2023-04-03T20:36:31.163Z,103221.38
2023-04-03T20:38:57.983Z,103221.34
2023-04-03T20:41:24.979Z,103223.03
2023-04-03T20:43:51.710Z,103214.16
2023-04-03T20:46:20.288Z,103209.69
2023-04-03T20:48:48.128Z,103200.75
2023-04-03T20:51:18.378Z,103212.25
2023-04-03T20:53:48.254Z,103208.69
2023-04-03T20:56:16.003Z,103203.31
2023-04-03T20:58:46.571Z,103204.91
2023-04-03T21:01:19.372Z,103199.50
2023-04-03T21:03:46.582Z,103210.41
2023-04-03T21:06:50.969Z,103203.97
2023-04-03T21:09:36.462Z,103199.56
2023-04-03T21:12:40.579Z,103201.25
2023-04-03T21:15:45.229Z,103191.16
2023-04-03T21:18:12.449Z,103202.84
2023-04-03T21:20:40.008Z,103195.69
2023-04-03T21:23:06.942Z,103196.47
2023-04-03T21:25:33.574Z,103197.47
2023-04-03T21:28:00.277Z,103193.84
2023-04-03T21:30:27.096Z,103189.28
2023-04-03T21:32:53.690Z,103195.53
2023-04-03T21:35:20.326Z,103202.84
2023-04-03T21:37:46.901Z,103207.94
2023-04-03T21:40:13.609Z,103207.84
2023-04-03T21:42:40.157Z,103210.47
2023-04-03T21:45:07.340Z,103207.94
2023-04-03T21:47:35.579Z,103214.19
2023-04-03T21:50:02.555Z,103215.03
2023-04-03T21:52:29.103Z,103216.75
2023-04-03T21:54:55.670Z,103214.97
2023-04-03T21:57:22.802Z,103211.41
2023-04-03T21:59:50.026Z,103207.72
2023-04-03T22:02:16.642Z,103203.28
2023-04-03T22:04:43.212Z,103211.34
2023-04-03T22:07:09.862Z,103206.72
2023-04-03T22:09:36.559Z,103200.53
2023-04-03T22:12:04.749Z,103204.13
2023-04-03T22:14:31.563Z,103199.50
2023-04-03T22:16:58.300Z,103200.50
2023-04-03T22:19:25.348Z,103200.41
2023-04-03T22:21:52.826Z,103198.44
2023-04-03T22:24:20.324Z,103199.56
2023-04-03T22:26:47.138Z,103187.81
2023-04-03T22:29:13.876Z,103190.47
2023-04-03T22:31:42.316Z,103193.09
2023-04-03T22:34:08.924Z,103184.81
2023-04-03T22:36:36.290Z,103179.72
2023-04-03T22:39:04.109Z,103167.94
2023-04-03T22:41:31.849Z,103176.97
2023-04-03T22:43:58.475Z,103182.91
2023-04-03T22:46:25.975Z,103182.03
2023-04-03T22:48:52.866Z,103184.91
2023-04-03T22:51:19.410Z,103179.63
2023-04-03T22:53:45.948Z,103186.41
2023-04-03T22:56:13.785Z,103181.13
2023-04-03T22:58:40.497Z,103179.16
2023-04-03T23:01:08.967Z,103182.72
2023-04-03T23:03:36.470Z,103173.09
2023-04-03T23:06:06.631Z,103173.22
2023-04-03T23:08:34.949Z,103174.69
2023-04-03T23:11:02.250Z,103175.69
2023-04-03T23:13:28.915Z,103178.38
2023-04-03T23:15:56.687Z,103171.13
2023-04-03T23:18:23.782Z,103179.97
2023-04-03T23:20:54.699Z,103171.06
2023-04-03T23:23:22.494Z,103170.94
2023-04-03T23:25:56.940Z,103173.91
2023-04-03T23:28:23.825Z,103176.34
2023-04-03T23:30:51.737Z,103176.44
2023-04-03T23:33:18.326Z,103174.63
2023-04-03T23:35:47.937Z,103171.88
2023-04-03T23:38:15.024Z,103171.06
2023-04-03T23:40:42.238Z,103172.75
2023-04-03T23:43:08.937Z,103173.50
2023-04-03T23:45:35.793Z,103169.91
2023-04-03T23:48:02.386Z,103166.34
2023-04-03T23:50:29.311Z,103172.59
2023-04-03T23:52:55.871Z,103162.69
2023-04-03T23:55:22.485Z,103168.72
2023-04-03T23:57:49.109Z,103165.44
